PRGBS SBFL-SBSP
Flight info
| Callsign | PRGBS |
|---|---|
| Flight time | 0h 43m |
| Altitude | 36998 |
| Route | UBROS UM540 ANISE |
| Aircraft | C700/M-SBDGHM1RWXY/LB2 |
Departure
| Time | 2026-05-05 22:36 |
|---|---|
| Airport | Hercílio Luz International Airport (SBFL) |
Arrival
| Time | 2026-05-05 23:19 |
|---|---|
| Airport | Congonhas–Deputado Freitas Nobre Airport (SBSP) |
| Time | Latitude | Longitude | Altitude | Speed | Heading |
|---|---|---|---|---|---|
| 2026-05-05 22:03 | -27.66496 | -48.54812 | 22 ft | 0 kts | 39° |
| 2026-05-05 22:32 | -27.66487 | -48.54802 | 22 ft | 3 kts | 53° |
| 2026-05-05 22:32 | -27.66483 | -48.54764 | 23 ft | 9 kts | 90° |
| 2026-05-05 22:33 | -27.66520 | -48.54729 | 23 ft | 6 kts | 219° |
| 2026-05-05 22:33 | -27.66542 | -48.54740 | 24 ft | 9 kts | 183° |
| 2026-05-05 22:33 | -27.66630 | -48.54786 | 23 ft | 17 kts | 217° |
| 2026-05-05 22:33 | -27.66695 | -48.54875 | 21 ft | 12 kts | 296° |
| 2026-05-05 22:34 | -27.66651 | -48.54970 | 23 ft | 16 kts | 298° |
| 2026-05-05 22:34 | -27.66578 | -48.55073 | 21 ft | 18 kts | 320° |
| 2026-05-05 22:34 | -27.66575 | -48.55101 | 22 ft | 1 kts | 169° |
| 2026-05-05 22:34 | -27.66578 | -48.55099 | 22 ft | 2 kts | 151° |
| 2026-05-05 22:35 | -27.66595 | -48.55077 | 21 ft | 0 kts | 124° |
| 2026-05-05 22:36 | -27.66597 | -48.55073 | 21 ft | 7 kts | 124° |
| 2026-05-05 22:36 | -27.66797 | -48.54704 | 21 ft | 109 kts | 121° |
| 2026-05-05 22:36 | -27.67337 | -48.53722 | 374 ft | 175 kts | 121° |
| 2026-05-05 22:36 | -27.68088 | -48.52420 | 1231 ft | 215 kts | 122° |
| 2026-05-05 22:37 | -27.68970 | -48.51066 | 2892 ft | 218 kts | 124° |
| 2026-05-05 22:37 | -27.69468 | -48.49297 | 3909 ft | 264 kts | 86° |
| 2026-05-05 22:37 | -27.68753 | -48.47275 | 5106 ft | 298 kts | 50° |
| 2026-05-05 22:37 | -27.67020 | -48.45857 | 6518 ft | 323 kts | 22° |
| 2026-05-05 22:38 | -27.64988 | -48.44821 | 7999 ft | 309 kts | 26° |
| 2026-05-05 22:38 | -27.63208 | -48.43581 | 9350 ft | 307 kts | 30° |
| 2026-05-05 22:38 | -27.61441 | -48.42364 | 10627 ft | 286 kts | 26° |
| 2026-05-05 22:38 | -27.59708 | -48.41344 | 11748 ft | 290 kts | 23° |
| 2026-05-05 22:39 | -27.57848 | -48.40255 | 13007 ft | 311 kts | 25° |
| 2026-05-05 22:39 | -27.55914 | -48.39019 | 14358 ft | 326 kts | 27° |
| 2026-05-05 22:39 | -27.53897 | -48.37766 | 15677 ft | 333 kts | 25° |
| 2026-05-05 22:39 | -27.51833 | -48.36536 | 17062 ft | 338 kts | 25° |
| 2026-05-05 22:40 | -27.49758 | -48.35267 | 18489 ft | 340 kts | 26° |
| 2026-05-05 22:40 | -27.47681 | -48.33977 | 19762 ft | 341 kts | 26° |
| 2026-05-05 22:40 | -27.45547 | -48.32667 | 20590 ft | 361 kts | 25° |
| 2026-05-05 22:40 | -27.43270 | -48.31283 | 21055 ft | 389 kts | 26° |
| 2026-05-05 22:41 | -27.40861 | -48.29802 | 22051 ft | 397 kts | 26° |
| 2026-05-05 22:41 | -27.38447 | -48.28315 | 23093 ft | 405 kts | 26° |
| 2026-05-05 22:41 | -27.35948 | -48.26788 | 24041 ft | 412 kts | 25° |
| 2026-05-05 22:41 | -27.33410 | -48.25238 | 24923 ft | 419 kts | 25° |
| 2026-05-05 22:42 | -27.30967 | -48.23742 | 25779 ft | 425 kts | 25° |
| 2026-05-05 22:42 | -27.28273 | -48.22092 | 26649 ft | 433 kts | 25° |
| 2026-05-05 22:42 | -27.25619 | -48.20473 | 27469 ft | 439 kts | 25° |
| 2026-05-05 22:42 | -27.22912 | -48.18820 | 28290 ft | 446 kts | 25° |
| 2026-05-05 22:43 | -27.20160 | -48.17140 | 29101 ft | 452 kts | 25° |
| 2026-05-05 22:43 | -27.17373 | -48.15440 | 29924 ft | 459 kts | 25° |
| 2026-05-05 22:43 | -27.14628 | -48.13768 | 30628 ft | 465 kts | 24° |
| 2026-05-05 22:43 | -27.11759 | -48.12019 | 31131 ft | 477 kts | 24° |
| 2026-05-05 22:44 | -27.08773 | -48.10206 | 31141 ft | 499 kts | 25° |
| 2026-05-05 22:44 | -27.05664 | -48.08315 | 31154 ft | 515 kts | 25° |
| 2026-05-05 22:44 | -27.02495 | -48.06379 | 31151 ft | 520 kts | 25° |
| 2026-05-05 22:45 | -26.96116 | -48.02503 | 31156 ft | 522 kts | 25° |
| 2026-05-05 22:45 | -26.89766 | -47.98650 | 31156 ft | 522 kts | 25° |
| 2026-05-05 22:46 | -26.83377 | -47.94778 | 31154 ft | 521 kts | 25° |
| 2026-05-05 22:46 | -26.76997 | -47.90917 | 31154 ft | 521 kts | 25° |
| 2026-05-05 22:47 | -26.70685 | -47.87101 | 31152 ft | 520 kts | 25° |
| 2026-05-05 22:47 | -26.64313 | -47.83255 | 31151 ft | 519 kts | 25° |
| 2026-05-05 22:48 | -26.57994 | -47.79445 | 31154 ft | 518 kts | 25° |
| 2026-05-05 22:48 | -26.51656 | -47.75628 | 31151 ft | 518 kts | 25° |
| 2026-05-05 22:49 | -26.45388 | -47.71859 | 31153 ft | 517 kts | 25° |
| 2026-05-05 22:49 | -26.39042 | -47.68047 | 31151 ft | 517 kts | 25° |
| 2026-05-05 22:50 | -26.33765 | -47.64881 | 31154 ft | 517 kts | 25° |
| 2026-05-05 22:50 | -26.27431 | -47.61085 | 31151 ft | 517 kts | 25° |
| 2026-05-05 22:51 | -26.21086 | -47.57288 | 31154 ft | 517 kts | 25° |
| 2026-05-05 22:51 | -26.14756 | -47.53504 | 31152 ft | 517 kts | 25° |
| 2026-05-05 22:52 | -26.08423 | -47.49723 | 31153 ft | 516 kts | 25° |
| 2026-05-05 22:52 | -26.02093 | -47.45948 | 31153 ft | 516 kts | 25° |
| 2026-05-05 22:53 | -25.95759 | -47.42176 | 31151 ft | 516 kts | 25° |
| 2026-05-05 22:53 | -25.89438 | -47.38416 | 31148 ft | 515 kts | 25° |
| 2026-05-05 22:54 | -25.83237 | -47.34733 | 31149 ft | 514 kts | 25° |
| 2026-05-05 22:54 | -25.76987 | -47.31024 | 31148 ft | 514 kts | 25° |
| 2026-05-05 22:55 | -25.70670 | -47.27280 | 31150 ft | 513 kts | 25° |
| 2026-05-05 22:55 | -25.64414 | -47.23576 | 31150 ft | 513 kts | 25° |
| 2026-05-05 22:56 | -25.58081 | -47.19832 | 31147 ft | 513 kts | 25° |
| 2026-05-05 22:56 | -25.51824 | -47.16137 | 31146 ft | 513 kts | 25° |
| 2026-05-05 22:57 | -25.45522 | -47.12420 | 31148 ft | 512 kts | 25° |
| 2026-05-05 22:57 | -25.39258 | -47.08728 | 31144 ft | 504 kts | 25° |
| 2026-05-05 22:58 | -25.33077 | -47.05093 | 31145 ft | 502 kts | 25° |
| 2026-05-05 22:58 | -25.26918 | -47.01473 | 31150 ft | 501 kts | 25° |
| 2026-05-05 22:59 | -25.20741 | -46.97847 | 31149 ft | 502 kts | 25° |
| 2026-05-05 22:59 | -25.14673 | -46.94288 | 31146 ft | 502 kts | 25° |
| 2026-05-05 23:00 | -25.05505 | -46.88920 | 31151 ft | 502 kts | 25° |
| 2026-05-05 23:00 | -24.99323 | -46.85305 | 31147 ft | 502 kts | 25° |
| 2026-05-05 23:01 | -24.96231 | -46.83499 | 30902 ft | 506 kts | 25° |
| 2026-05-05 23:01 | -24.93134 | -46.81691 | 30247 ft | 502 kts | 25° |
| 2026-05-05 23:01 | -24.90061 | -46.79895 | 29546 ft | 496 kts | 25° |
| 2026-05-05 23:01 | -24.87032 | -46.78125 | 28899 ft | 490 kts | 26° |
| 2026-05-05 23:02 | -24.84031 | -46.76380 | 28259 ft | 486 kts | 25° |
| 2026-05-05 23:02 | -24.81044 | -46.74643 | 27619 ft | 481 kts | 25° |
| 2026-05-05 23:02 | -24.78107 | -46.72931 | 26986 ft | 477 kts | 25° |
| 2026-05-05 23:02 | -24.75188 | -46.71230 | 26364 ft | 472 kts | 25° |
| 2026-05-05 23:03 | -24.72331 | -46.69569 | 25747 ft | 468 kts | 25° |
| 2026-05-05 23:03 | -24.69467 | -46.67905 | 25134 ft | 463 kts | 25° |
| 2026-05-05 23:03 | -24.66620 | -46.66251 | 24526 ft | 459 kts | 26° |
| 2026-05-05 23:03 | -24.63807 | -46.64629 | 23923 ft | 454 kts | 24° |
| 2026-05-05 23:04 | -24.60884 | -46.63397 | 23281 ft | 445 kts | 13° |
| 2026-05-05 23:04 | -24.57887 | -46.62707 | 22746 ft | 436 kts | 4° |
| 2026-05-05 23:04 | -24.54874 | -46.62533 | 22253 ft | 430 kts | 356° |
| 2026-05-05 23:04 | -24.51898 | -46.62554 | 21760 ft | 427 kts | 357° |
| 2026-05-05 23:05 | -24.48933 | -46.62550 | 21268 ft | 424 kts | 357° |
| 2026-05-05 23:05 | -24.46027 | -46.62547 | 20788 ft | 420 kts | 357° |
| 2026-05-05 23:05 | -24.43114 | -46.62555 | 20306 ft | 417 kts | 357° |
| 2026-05-05 23:05 | -24.40289 | -46.62563 | 19838 ft | 414 kts | 357° |
| 2026-05-05 23:06 | -24.37442 | -46.62565 | 19367 ft | 411 kts | 357° |
| 2026-05-05 23:06 | -24.34592 | -46.62564 | 18891 ft | 408 kts | 358° |
| 2026-05-05 23:06 | -24.31764 | -46.62566 | 18421 ft | 405 kts | 358° |
| 2026-05-05 23:06 | -24.28960 | -46.62568 | 17923 ft | 401 kts | 358° |
| 2026-05-05 23:07 | -24.26184 | -46.62570 | 17460 ft | 397 kts | 358° |
| 2026-05-05 23:07 | -24.23428 | -46.62572 | 17007 ft | 394 kts | 358° |
| 2026-05-05 23:07 | -24.20687 | -46.62574 | 16551 ft | 392 kts | 358° |
| 2026-05-05 23:07 | -24.17966 | -46.62576 | 16102 ft | 389 kts | 358° |
| 2026-05-05 23:08 | -24.15276 | -46.62577 | 15657 ft | 387 kts | 358° |
| 2026-05-05 23:08 | -24.12581 | -46.62579 | 15216 ft | 384 kts | 358° |
| 2026-05-05 23:08 | -24.09909 | -46.62581 | 14775 ft | 382 kts | 358° |
| 2026-05-05 23:08 | -24.07375 | -46.62583 | 14359 ft | 380 kts | 358° |
| 2026-05-05 23:09 | -24.04741 | -46.62584 | 13915 ft | 378 kts | 358° |
| 2026-05-05 23:09 | -24.02208 | -46.62585 | 13473 ft | 374 kts | 358° |
| 2026-05-05 23:09 | -23.99624 | -46.62587 | 13049 ft | 363 kts | 358° |
| 2026-05-05 23:09 | -23.97862 | -46.62586 | 12758 ft | 347 kts | 358° |
| 2026-05-05 23:10 | -23.95403 | -46.62586 | 12362 ft | 327 kts | 358° |
| 2026-05-05 23:10 | -23.93181 | -46.62589 | 12008 ft | 312 kts | 358° |
| 2026-05-05 23:10 | -23.91077 | -46.62592 | 11670 ft | 302 kts | 358° |
| 2026-05-05 23:10 | -23.88987 | -46.62594 | 11334 ft | 299 kts | 358° |
| 2026-05-05 23:11 | -23.86907 | -46.62671 | 10988 ft | 298 kts | 350° |
| 2026-05-05 23:11 | -23.84929 | -46.63270 | 10663 ft | 294 kts | 336° |
| 2026-05-05 23:11 | -23.83141 | -46.64331 | 10334 ft | 291 kts | 324° |
| 2026-05-05 23:11 | -23.81443 | -46.65533 | 9990 ft | 291 kts | 326° |
| 2026-05-05 23:12 | -23.79734 | -46.66702 | 9656 ft | 289 kts | 326° |
| 2026-05-05 23:12 | -23.78517 | -46.67542 | 9415 ft | 287 kts | 326° |
| 2026-05-05 23:12 | -23.76852 | -46.68705 | 9286 ft | 280 kts | 326° |
| 2026-05-05 23:12 | -23.75194 | -46.69857 | 9283 ft | 284 kts | 326° |
| 2026-05-05 23:13 | -23.73523 | -46.71019 | 9287 ft | 285 kts | 326° |
| 2026-05-05 23:13 | -23.71842 | -46.72183 | 9173 ft | 289 kts | 326° |
| 2026-05-05 23:13 | -23.70142 | -46.73361 | 8882 ft | 288 kts | 326° |
| 2026-05-05 23:13 | -23.68463 | -46.74525 | 8558 ft | 284 kts | 326° |
| 2026-05-05 23:14 | -23.66802 | -46.75679 | 8228 ft | 282 kts | 326° |
| 2026-05-05 23:14 | -23.65178 | -46.76803 | 7905 ft | 280 kts | 326° |
| 2026-05-05 23:14 | -23.63536 | -46.77940 | 7577 ft | 278 kts | 326° |
| 2026-05-05 23:14 | -23.61905 | -46.79069 | 7252 ft | 277 kts | 326° |
| 2026-05-05 23:15 | -23.60280 | -46.80170 | 6928 ft | 275 kts | 329° |
| 2026-05-05 23:15 | -23.58448 | -46.80728 | 6591 ft | 273 kts | 354° |
| 2026-05-05 23:15 | -23.56600 | -46.80514 | 6267 ft | 264 kts | 15° |
| 2026-05-05 23:15 | -23.55010 | -46.79634 | 5797 ft | 253 kts | 36° |
| 2026-05-05 23:16 | -23.53847 | -46.78250 | 5423 ft | 243 kts | 56° |
| 2026-05-05 23:16 | -23.53195 | -46.76603 | 5121 ft | 232 kts | 75° |
| 2026-05-05 23:16 | -23.53061 | -46.74888 | 4849 ft | 225 kts | 93° |
| 2026-05-05 23:16 | -23.53404 | -46.73264 | 4588 ft | 216 kts | 110° |
| 2026-05-05 23:17 | -23.54141 | -46.71897 | 4345 ft | 209 kts | 128° |
| 2026-05-05 23:17 | -23.55205 | -46.70853 | 4108 ft | 204 kts | 144° |
| 2026-05-05 23:17 | -23.56356 | -46.70026 | 3969 ft | 195 kts | 145° |
| 2026-05-05 23:17 | -23.57398 | -46.69296 | 3787 ft | 156 kts | 146° |
| 2026-05-05 23:18 | -23.58294 | -46.68682 | 3587 ft | 151 kts | 145° |
| 2026-05-05 23:18 | -23.59163 | -46.68077 | 3377 ft | 146 kts | 146° |
| 2026-05-05 23:18 | -23.59962 | -46.67518 | 3179 ft | 128 kts | 146° |
| 2026-05-05 23:18 | -23.60640 | -46.66954 | 2961 ft | 121 kts | 136° |
| 2026-05-05 23:19 | -23.61267 | -46.66384 | 2799 ft | 121 kts | 144° |
| 2026-05-05 23:19 | -23.61971 | -46.65886 | 2646 ft | 120 kts | 146° |
| 2026-05-05 23:19 | -23.62616 | -46.65430 | 2590 ft | 82 kts | 147° |
| 2026-05-05 23:19 | -23.62781 | -46.65301 | 2589 ft | 8 kts | 96° |
| 2026-05-05 23:20 | -23.62756 | -46.65249 | 2593 ft | 7 kts | 41° |
| 2026-05-05 23:20 | -23.62743 | -46.65249 | 2593 ft | 1 kts | 334° |
| 2026-05-05 23:20 | -23.62731 | -46.65257 | 2593 ft | 6 kts | 327° |
| 2026-05-05 23:20 | -23.62672 | -46.65297 | 2589 ft | 14 kts | 329° |
| 2026-05-05 23:21 | -23.62567 | -46.65367 | 2593 ft | 21 kts | 326° |
| 2026-05-05 23:21 | -23.62433 | -46.65462 | 2590 ft | 25 kts | 327° |
| 2026-05-05 23:21 | -23.62321 | -46.65539 | 2590 ft | 18 kts | 328° |
| 2026-05-05 23:21 | -23.62256 | -46.65583 | 2594 ft | 0 kts | 331° |
| 2026-05-05 23:22 | -23.62236 | -46.65581 | 2594 ft | 7 kts | 25° |
| 2026-05-05 23:22 | -23.62222 | -46.65557 | 2589 ft | 0 kts | 64° |